sensor_id;sensor_type;location;lat;lon;timestamp;temperature;humidity
4759;DHT22;2393;50.560;12.636;2023-04-03T00:01:24;2.50;99.90
4759;DHT22;2393;50.560;12.636;2023-04-03T00:03:52;2.40;99.90
4759;DHT22;2393;50.560;12.636;2023-04-03T00:06:21;2.40;99.90
4759;DHT22;2393;50.560;12.636;2023-04-03T00:08:50;2.40;99.90
4759;DHT22;2393;50.560;12.636;2023-04-03T00:11:18;2.40;99.90
4759;DHT22;2393;50.560;12.636;2023-04-03T00:13:47;2.20;99.90
4759;DHT22;2393;50.560;12.636;2023-04-03T00:16:18;2.20;99.90
4759;DHT22;2393;50.560;12.636;2023-04-03T00:18:46;2.20;99.90
4759;DHT22;2393;50.560;12.636;2023-04-03T00:21:14;2.30;99.90
4759;DHT22;2393;50.560;12.636;2023-04-03T00:23:43;2.20;99.90
4759;DHT22;2393;50.560;12.636;2023-04-03T00:26:11;2.20;99.90
4759;DHT22;2393;50.560;12.636;2023-04-03T00:28:40;2.20;99.90
4759;DHT22;2393;50.560;12.636;2023-04-03T00:31:08;2.20;99.90
4759;DHT22;2393;50.560;12.636;2023-04-03T00:33:42;2.20;99.90
4759;DHT22;2393;50.560;12.636;2023-04-03T00:36:24;2.10;99.90
4759;DHT22;2393;50.560;12.636;2023-04-03T00:38:53;2.20;99.90
4759;DHT22;2393;50.560;12.636;2023-04-03T00:41:21;2.20;99.90
4759;DHT22;2393;50.560;12.636;2023-04-03T00:43:49;2.20;99.90
4759;DHT22;2393;50.560;12.636;2023-04-03T00:46:17;2.20;99.90
4759;DHT22;2393;50.560;12.636;2023-04-03T00:48:48;2.10;99.90
4759;DHT22;2393;50.560;12.636;2023-04-03T00:51:22;2.00;99.90
4759;DHT22;2393;50.560;12.636;2023-04-03T00:53:54;1.90;99.90
4759;DHT22;2393;50.560;12.636;2023-04-03T00:56:26;2.00;99.90
4759;DHT22;2393;50.560;12.636;2023-04-03T00:58:59;1.90;99.90
4759;DHT22;2393;50.560;12.636;2023-04-03T01:01:29;1.80;99.90
4759;DHT22;2393;50.560;12.636;2023-04-03T01:04:00;1.80;99.90
4759;DHT22;2393;50.560;12.636;2023-04-03T01:06:31;1.80;99.90
4759;DHT22;2393;50.560;12.636;2023-04-03T01:09:08;1.80;99.90
4759;DHT22;2393;50.560;12.636;2023-04-03T01:11:36;1.70;99.90
4759;DHT22;2393;50.560;12.636;2023-04-03T01:14:04;1.80;99.90
4759;DHT22;2393;50.560;12.636;2023-04-03T01:16:33;1.70;99.90
4759;DHT22;2393;50.560;12.636;2023-04-03T01:19:03;1.70;99.90
4759;DHT22;2393;50.560;12.636;2023-04-03T01:21:54;1.70;99.90
4759;DHT22;2393;50.560;12.636;2023-04-03T01:24:34;1.50;99.90
4759;DHT22;2393;50.560;12.636;2023-04-03T01:27:06;1.40;99.90
4759;DHT22;2393;50.560;12.636;2023-04-03T01:29:36;1.30;99.90
4759;DHT22;2393;50.560;12.636;2023-04-03T01:32:06;1.30;99.90
4759;DHT22;2393;50.560;12.636;2023-04-03T01:34:35;1.30;99.90
4759;DHT22;2393;50.560;12.636;2023-04-03T01:37:03;1.20;99.90
4759;DHT22;2393;50.560;12.636;2023-04-03T01:39:32;1.20;99.90
4759;DHT22;2393;50.560;12.636;2023-04-03T01:42:00;1.10;99.90
4759;DHT22;2393;50.560;12.636;2023-04-03T01:44:33;1.10;99.90
4759;DHT22;2393;50.560;12.636;2023-04-03T01:47:01;1.20;99.90
4759;DHT22;2393;50.560;12.636;2023-04-03T01:49:31;1.10;99.90
4759;DHT22;2393;50.560;12.636;2023-04-03T01:51:59;1.10;99.90
4759;DHT22;2393;50.560;12.636;2023-04-03T01:54:27;1.20;99.90
4759;DHT22;2393;50.560;12.636;2023-04-03T01:56:55;1.30;99.90
4759;DHT22;2393;50.560;12.636;2023-04-03T01:59:24;1.20;99.90
4759;DHT22;2393;50.560;12.636;2023-04-03T02:01:53;1.20;99.90
4759;DHT22;2393;50.560;12.636;2023-04-03T02:04:24;1.20;99.90
4759;DHT22;2393;50.560;12.636;2023-04-03T02:06:54;1.20;99.90
4759;DHT22;2393;50.560;12.636;2023-04-03T02:09:22;1.20;99.90
4759;DHT22;2393;50.560;12.636;2023-04-03T02:11:52;1.20;99.90
4759;DHT22;2393;50.560;12.636;2023-04-03T02:14:20;1.20;99.90
4759;DHT22;2393;50.560;12.636;2023-04-03T02:16:53;1.20;99.90
4759;DHT22;2393;50.560;12.636;2023-04-03T02:19:22;1.20;99.90
4759;DHT22;2393;50.560;12.636;2023-04-03T02:21:50;1.20;99.90
4759;DHT22;2393;50.560;12.636;2023-04-03T02:24:20;1.10;99.90
4759;DHT22;2393;50.560;12.636;2023-04-03T02:26:48;1.10;99.90
4759;DHT22;2393;50.560;12.636;2023-04-03T02:29:16;1.10;99.90
4759;DHT22;2393;50.560;12.636;2023-04-03T02:31:44;1.10;99.90
4759;DHT22;2393;50.560;12.636;2023-04-03T02:34:14;1.20;99.90
4759;DHT22;2393;50.560;12.636;2023-04-03T02:36:45;1.20;99.90
4759;DHT22;2393;50.560;12.636;2023-04-03T02:39:21;1.20;99.90
4759;DHT22;2393;50.560;12.636;2023-04-03T02:41:49;1.00;99.90
4759;DHT22;2393;50.560;12.636;2023-04-03T02:44:22;1.00;99.90
4759;DHT22;2393;50.560;12.636;2023-04-03T02:46:52;1.10;99.90
4759;DHT22;2393;50.560;12.636;2023-04-03T02:49:20;1.10;99.90
4759;DHT22;2393;50.560;12.636;2023-04-03T02:51:48;1.10;99.90
4759;DHT22;2393;50.560;12.636;2023-04-03T02:54:17;1.10;99.90
4759;DHT22;2393;50.560;12.636;2023-04-03T02:56:52;1.20;99.90
4759;DHT22;2393;50.560;12.636;2023-04-03T02:59:20;1.20;99.90
4759;DHT22;2393;50.560;12.636;2023-04-03T03:01:48;1.20;99.90
4759;DHT22;2393;50.560;12.636;2023-04-03T03:04:17;1.30;99.90
4759;DHT22;2393;50.560;12.636;2023-04-03T03:06:45;1.20;99.90
4759;DHT22;2393;50.560;12.636;2023-04-03T03:09:13;1.20;99.90
4759;DHT22;2393;50.560;12.636;2023-04-03T03:11:42;1.20;99.90
4759;DHT22;2393;50.560;12.636;2023-04-03T03:14:11;1.20;99.90
4759;DHT22;2393;50.560;12.636;2023-04-03T03:16:39;1.30;99.90
4759;DHT22;2393;50.560;12.636;2023-04-03T03:19:08;1.20;99.90
4759;DHT22;2393;50.560;12.636;2023-04-03T03:21:36;1.20;99.90
4759;DHT22;2393;50.560;12.636;2023-04-03T03:24:06;1.30;99.90
4759;DHT22;2393;50.560;12.636;2023-04-03T03:26:35;1.20;99.90
4759;DHT22;2393;50.560;12.636;2023-04-03T03:29:03;1.10;99.90
4759;DHT22;2393;50.560;12.636;2023-04-03T03:31:33;1.10;99.90
4759;DHT22;2393;50.560;12.636;2023-04-03T03:34:01;1.20;99.90
4759;DHT22;2393;50.560;12.636;2023-04-03T03:36:29;1.20;99.90
4759;DHT22;2393;50.560;12.636;2023-04-03T03:38:57;1.20;99.90
4759;DHT22;2393;50.560;12.636;2023-04-03T03:41:25;1.20;99.90
4759;DHT22;2393;50.560;12.636;2023-04-03T03:43:53;1.30;99.90
4759;DHT22;2393;50.560;12.636;2023-04-03T03:46:21;1.20;99.90
4759;DHT22;2393;50.560;12.636;2023-04-03T03:48:51;1.20;99.90
4759;DHT22;2393;50.560;12.636;2023-04-03T03:51:19;1.20;99.90
4759;DHT22;2393;50.560;12.636;2023-04-03T03:53:47;1.20;99.90
4759;DHT22;2393;50.560;12.636;2023-04-03T03:56:18;1.20;99.90
4759;DHT22;2393;50.560;12.636;2023-04-03T03:58:47;1.20;99.90
4759;DHT22;2393;50.560;12.636;2023-04-03T04:01:16;1.20;99.90
4759;DHT22;2393;50.560;12.636;2023-04-03T04:03:47;1.20;99.90
4759;DHT22;2393;50.560;12.636;2023-04-03T04:06:21;1.20;99.90
4759;DHT22;2393;50.560;12.636;2023-04-03T04:08:51;1.10;99.90
4759;DHT22;2393;50.560;12.636;2023-04-03T04:11:19;1.10;99.90
4759;DHT22;2393;50.560;12.636;2023-04-03T04:13:49;1.10;99.90
4759;DHT22;2393;50.560;12.636;2023-04-03T04:16:21;1.10;99.90
4759;DHT22;2393;50.560;12.636;2023-04-03T04:18:49;1.10;99.90
4759;DHT22;2393;50.560;12.636;2023-04-03T04:21:30;1.10;99.90
4759;DHT22;2393;50.560;12.636;2023-04-03T04:23:58;1.10;99.90
4759;DHT22;2393;50.560;12.636;2023-04-03T04:26:27;1.10;99.90
4759;DHT22;2393;50.560;12.636;2023-04-03T04:28:55;1.00;99.90
4759;DHT22;2393;50.560;12.636;2023-04-03T04:31:24;1.00;99.90
4759;DHT22;2393;50.560;12.636;2023-04-03T04:33:59;1.00;99.90
4759;DHT22;2393;50.560;12.636;2023-04-03T04:36:29;1.00;99.90
4759;DHT22;2393;50.560;12.636;2023-04-03T04:38:59;0.90;99.90
4759;DHT22;2393;50.560;12.636;2023-04-03T04:41:28;0.90;99.90
4759;DHT22;2393;50.560;12.636;2023-04-03T04:43:59;0.90;99.90
4759;DHT22;2393;50.560;12.636;2023-04-03T04:46:27;0.80;99.90
4759;DHT22;2393;50.560;12.636;2023-04-03T04:48:58;0.80;99.90
4759;DHT22;2393;50.560;12.636;2023-04-03T04:51:29;0.80;99.90
4759;DHT22;2393;50.560;12.636;2023-04-03T04:54:16;0.80;99.90
4759;DHT22;2393;50.560;12.636;2023-04-03T04:56:46;0.80;99.90
4759;DHT22;2393;50.560;12.636;2023-04-03T04:59:15;0.70;99.90
4759;DHT22;2393;50.560;12.636;2023-04-03T05:01:44;0.60;99.90
4759;DHT22;2393;50.560;12.636;2023-04-03T05:04:16;0.60;99.90
4759;DHT22;2393;50.560;12.636;2023-04-03T05:06:49;0.50;99.90
4759;DHT22;2393;50.560;12.636;2023-04-03T05:09:22;0.50;99.90
4759;DHT22;2393;50.560;12.636;2023-04-03T05:11:52;0.50;99.90
4759;DHT22;2393;50.560;12.636;2023-04-03T05:14:23;0.40;99.90
4759;DHT22;2393;50.560;12.636;2023-04-03T05:16:52;0.30;99.90
4759;DHT22;2393;50.560;12.636;2023-04-03T05:19:27;0.30;99.90
4759;DHT22;2393;50.560;12.636;2023-04-03T05:21:57;0.30;99.90
4759;DHT22;2393;50.560;12.636;2023-04-03T05:24:26;0.30;99.90
4759;DHT22;2393;50.560;12.636;2023-04-03T05:26:54;0.40;99.90
4759;DHT22;2393;50.560;12.636;2023-04-03T05:29:22;0.30;99.90
4759;DHT22;2393;50.560;12.636;2023-04-03T05:31:51;0.20;99.90
4759;DHT22;2393;50.560;12.636;2023-04-03T05:34:19;0.20;99.90
4759;DHT22;2393;50.560;12.636;2023-04-03T05:36:49;0.30;99.90
4759;DHT22;2393;50.560;12.636;2023-04-03T05:39:19;0.70;99.90
4759;DHT22;2393;50.560;12.636;2023-04-03T05:41:47;1.40;99.90
4759;DHT22;2393;50.560;12.636;2023-04-03T05:44:15;2.50;99.90
4759;DHT22;2393;50.560;12.636;2023-04-03T05:46:45;3.60;99.90
4759;DHT22;2393;50.560;12.636;2023-04-03T05:49:13;4.60;99.90
4759;DHT22;2393;50.560;12.636;2023-04-03T05:51:42;5.10;99.90
4759;DHT22;2393;50.560;12.636;2023-04-03T05:54:23;5.10;99.90
4759;DHT22;2393;50.560;12.636;2023-04-03T05:56:55;4.70;99.90
4759;DHT22;2393;50.560;12.636;2023-04-03T05:59:25;4.50;99.90
4759;DHT22;2393;50.560;12.636;2023-04-03T06:01:55;4.20;99.90
4759;DHT22;2393;50.560;12.636;2023-04-03T06:04:24;3.80;99.90
4759;DHT22;2393;50.560;12.636;2023-04-03T06:06:54;3.30;99.90
4759;DHT22;2393;50.560;12.636;2023-04-03T06:09:28;3.10;99.90
4759;DHT22;2393;50.560;12.636;2023-04-03T06:11:57;2.90;99.90
4759;DHT22;2393;50.560;12.636;2023-04-03T06:14:26;2.60;99.90
4759;DHT22;2393;50.560;12.636;2023-04-03T06:16:54;2.30;99.90
4759;DHT22;2393;50.560;12.636;2023-04-03T06:19:23;2.10;99.90
4759;DHT22;2393;50.560;12.636;2023-04-03T06:21:55;2.00;99.90
4759;DHT22;2393;50.560;12.636;2023-04-03T06:24:23;1.70;99.90
4759;DHT22;2393;50.560;12.636;2023-04-03T06:26:53;1.50;99.90
4759;DHT22;2393;50.560;12.636;2023-04-03T06:29:21;1.30;99.90
4759;DHT22;2393;50.560;12.636;2023-04-03T06:31:50;1.10;99.90
4759;DHT22;2393;50.560;12.636;2023-04-03T06:34:18;1.30;99.90
4759;DHT22;2393;50.560;12.636;2023-04-03T06:36:47;1.20;99.90
4759;DHT22;2393;50.560;12.636;2023-04-03T06:39:18;1.50;99.90
4759;DHT22;2393;50.560;12.636;2023-04-03T06:41:47;2.10;99.90
4759;DHT22;2393;50.560;12.636;2023-04-03T06:44:18;2.20;99.90
4759;DHT22;2393;50.560;12.636;2023-04-03T06:46:46;2.20;99.90
4759;DHT22;2393;50.560;12.636;2023-04-03T06:49:14;2.40;99.90
4759;DHT22;2393;50.560;12.636;2023-04-03T06:51:42;2.30;99.90
4759;DHT22;2393;50.560;12.636;2023-04-03T06:54:10;2.00;99.90
4759;DHT22;2393;50.560;12.636;2023-04-03T06:56:38;1.90;99.90
4759;DHT22;2393;50.560;12.636;2023-04-03T06:59:06;2.10;99.90
4759;DHT22;2393;50.560;12.636;2023-04-03T07:01:36;2.50;99.90
4759;DHT22;2393;50.560;12.636;2023-04-03T07:04:04;2.50;99.90
4759;DHT22;2393;50.560;12.636;2023-04-03T07:06:33;2.50;99.90
4759;DHT22;2393;50.560;12.636;2023-04-03T07:09:02;2.50;99.90
4759;DHT22;2393;50.560;12.636;2023-04-03T07:11:30;2.90;99.90
4759;DHT22;2393;50.560;12.636;2023-04-03T07:13:58;3.40;99.90
4759;DHT22;2393;50.560;12.636;2023-04-03T07:16:26;3.90;99.90
4759;DHT22;2393;50.560;12.636;2023-04-03T07:18:56;4.80;99.90
4759;DHT22;2393;50.560;12.636;2023-04-03T07:21:24;5.70;99.90
4759;DHT22;2393;50.560;12.636;2023-04-03T07:23:52;6.10;99.90
4759;DHT22;2393;50.560;12.636;2023-04-03T07:26:21;6.00;99.90
4759;DHT22;2393;50.560;12.636;2023-04-03T07:28:49;5.80;99.90
4759;DHT22;2393;50.560;12.636;2023-04-03T07:31:17;5.60;99.90
4759;DHT22;2393;50.560;12.636;2023-04-03T07:33:45;5.60;99.90
4759;DHT22;2393;50.560;12.636;2023-04-03T07:36:17;5.50;99.90
4759;DHT22;2393;50.560;12.636;2023-04-03T07:38:45;5.60;99.90
4759;DHT22;2393;50.560;12.636;2023-04-03T07:41:15;6.00;99.90
4759;DHT22;2393;50.560;12.636;2023-04-03T07:43:44;6.10;99.90
4759;DHT22;2393;50.560;12.636;2023-04-03T07:46:13;6.20;99.90
4759;DHT22;2393;50.560;12.636;2023-04-03T07:48:48;6.00;99.90
4759;DHT22;2393;50.560;12.636;2023-04-03T07:51:19;5.50;99.90
4759;DHT22;2393;50.560;12.636;2023-04-03T07:53:47;5.50;99.90
4759;DHT22;2393;50.560;12.636;2023-04-03T07:56:16;5.80;99.90
4759;DHT22;2393;50.560;12.636;2023-04-03T07:58:44;6.10;99.90
4759;DHT22;2393;50.560;12.636;2023-04-03T08:01:12;6.50;99.90
4759;DHT22;2393;50.560;12.636;2023-04-03T08:03:40;6.80;99.90
4759;DHT22;2393;50.560;12.636;2023-04-03T08:06:10;6.90;99.90
4759;DHT22;2393;50.560;12.636;2023-04-03T08:08:45;6.70;99.90
4759;DHT22;2393;50.560;12.636;2023-04-03T08:11:13;6.20;99.90
4759;DHT22;2393;50.560;12.636;2023-04-03T08:13:42;5.80;99.90
4759;DHT22;2393;50.560;12.636;2023-04-03T08:16:11;5.00;99.90
4759;DHT22;2393;50.560;12.636;2023-04-03T08:18:39;4.60;99.90
4759;DHT22;2393;50.560;12.636;2023-04-03T08:21:08;4.40;99.90
4759;DHT22;2393;50.560;12.636;2023-04-03T08:23:36;4.40;99.90
4759;DHT22;2393;50.560;12.636;2023-04-03T08:26:11;4.60;99.90
4759;DHT22;2393;50.560;12.636;2023-04-03T08:28:40;4.60;99.90
4759;DHT22;2393;50.560;12.636;2023-04-03T08:31:10;4.70;99.90
4759;DHT22;2393;50.560;12.636;2023-04-03T08:33:39;4.80;99.90
4759;DHT22;2393;50.560;12.636;2023-04-03T08:36:15;4.80;99.90
4759;DHT22;2393;50.560;12.636;2023-04-03T08:38:44;4.80;99.90
4759;DHT22;2393;50.560;12.636;2023-04-03T08:41:16;4.60;99.90
4759;DHT22;2393;50.560;12.636;2023-04-03T08:43:59;4.60;99.90
4759;DHT22;2393;50.560;12.636;2023-04-03T08:46:37;4.60;99.90
4759;DHT22;2393;50.560;12.636;2023-04-03T08:49:14;4.40;99.90
4759;DHT22;2393;50.560;12.636;2023-04-03T08:51:47;4.30;99.90
4759;DHT22;2393;50.560;12.636;2023-04-03T08:54:24;4.50;99.90
4759;DHT22;2393;50.560;12.636;2023-04-03T08:56:55;4.50;99.90
4759;DHT22;2393;50.560;12.636;2023-04-03T08:59:27;4.90;99.90
4759;DHT22;2393;50.560;12.636;2023-04-03T09:01:57;4.80;99.90
4759;DHT22;2393;50.560;12.636;2023-04-03T09:04:31;5.40;99.90
4759;DHT22;2393;50.560;12.636;2023-04-03T09:07:06;5.60;99.90
4759;DHT22;2393;50.560;12.636;2023-04-03T09:09:40;5.40;99.90
4759;DHT22;2393;50.560;12.636;2023-04-03T09:12:16;5.80;99.90
4759;DHT22;2393;50.560;12.636;2023-04-03T09:14:55;6.30;99.90
4759;DHT22;2393;50.560;12.636;2023-04-03T09:17:35;6.70;99.90
4759;DHT22;2393;50.560;12.636;2023-04-03T09:20:15;7.30;99.90
4759;DHT22;2393;50.560;12.636;2023-04-03T09:22:47;8.10;99.90
4759;DHT22;2393;50.560;12.636;2023-04-03T09:25:21;8.60;99.90
4759;DHT22;2393;50.560;12.636;2023-04-03T09:27:51;8.80;99.90
4759;DHT22;2393;50.560;12.636;2023-04-03T09:30:21;8.70;98.70
4759;DHT22;2393;50.560;12.636;2023-04-03T09:32:51;8.70;98.70
4759;DHT22;2393;50.560;12.636;2023-04-03T09:35:23;8.50;98.40
4759;DHT22;2393;50.560;12.636;2023-04-03T09:38:18;8.30;97.80
4759;DHT22;2393;50.560;12.636;2023-04-03T09:40:48;8.30;97.50
4759;DHT22;2393;50.560;12.636;2023-04-03T09:43:25;8.30;96.70
4759;DHT22;2393;50.560;12.636;2023-04-03T09:45:54;8.30;98.30
4759;DHT22;2393;50.560;12.636;2023-04-03T09:48:24;8.40;98.00
4759;DHT22;2393;50.560;12.636;2023-04-03T09:50:59;8.30;97.50
4759;DHT22;2393;50.560;12.636;2023-04-03T09:53:34;8.60;97.90
4759;DHT22;2393;50.560;12.636;2023-04-03T09:56:09;8.50;95.50
4759;DHT22;2393;50.560;12.636;2023-04-03T09:58:49;8.50;96.80
4759;DHT22;2393;50.560;12.636;2023-04-03T10:01:25;8.50;96.40
4759;DHT22;2393;50.560;12.636;2023-04-03T10:04:07;8.30;97.60
4759;DHT22;2393;50.560;12.636;2023-04-03T10:06:36;8.30;96.20
4759;DHT22;2393;50.560;12.636;2023-04-03T10:09:19;7.90;93.80
4759;DHT22;2393;50.560;12.636;2023-04-03T10:12:00;7.10;94.90
4759;DHT22;2393;50.560;12.636;2023-04-03T10:14:30;6.80;94.50
4759;DHT22;2393;50.560;12.636;2023-04-03T10:17:05;6.50;94.70
4759;DHT22;2393;50.560;12.636;2023-04-03T10:19:40;6.60;96.50
4759;DHT22;2393;50.560;12.636;2023-04-03T10:22:18;6.30;95.30
4759;DHT22;2393;50.560;12.636;2023-04-03T10:25:00;6.40;95.90
4759;DHT22;2393;50.560;12.636;2023-04-03T10:27:42;6.40;97.70
4759;DHT22;2393;50.560;12.636;2023-04-03T10:30:30;7.00;99.90
4759;DHT22;2393;50.560;12.636;2023-04-03T10:33:09;7.00;97.00
4759;DHT22;2393;50.560;12.636;2023-04-03T10:35:44;7.00;95.90
4759;DHT22;2393;50.560;12.636;2023-04-03T10:38:23;6.70;97.60
4759;DHT22;2393;50.560;12.636;2023-04-03T10:41:01;7.20;98.80
4759;DHT22;2393;50.560;12.636;2023-04-03T10:43:38;7.90;99.90
4759;DHT22;2393;50.560;12.636;2023-04-03T10:46:12;7.80;96.40
4759;DHT22;2393;50.560;12.636;2023-04-03T10:48:55;6.80;95.40
4759;DHT22;2393;50.560;12.636;2023-04-03T10:51:29;6.60;96.10
4759;DHT22;2393;50.560;12.636;2023-04-03T10:54:05;6.10;96.00
4759;DHT22;2393;50.560;12.636;2023-04-03T10:56:38;6.20;98.40
4759;DHT22;2393;50.560;12.636;2023-04-03T10:59:18;6.30;98.80
4759;DHT22;2393;50.560;12.636;2023-04-03T11:01:53;6.70;99.40
4759;DHT22;2393;50.560;12.636;2023-04-03T11:04:25;7.00;97.70
4759;DHT22;2393;50.560;12.636;2023-04-03T11:06:58;6.60;95.80
4759;DHT22;2393;50.560;12.636;2023-04-03T11:09:28;6.50;96.40
4759;DHT22;2393;50.560;12.636;2023-04-03T11:12:01;5.80;96.10
4759;DHT22;2393;50.560;12.636;2023-04-03T11:14:33;5.40;95.60
4759;DHT22;2393;50.560;12.636;2023-04-03T11:17:11;5.50;97.40
4759;DHT22;2393;50.560;12.636;2023-04-03T11:19:44;5.50;96.70
4759;DHT22;2393;50.560;12.636;2023-04-03T11:22:22;5.10;97.10
4759;DHT22;2393;50.560;12.636;2023-04-03T11:24:57;5.40;98.50
4759;DHT22;2393;50.560;12.636;2023-04-03T11:27:27;5.50;97.90
4759;DHT22;2393;50.560;12.636;2023-04-03T11:30:00;6.00;98.20
4759;DHT22;2393;50.560;12.636;2023-04-03T11:35:36;6.60;95.50
4759;DHT22;2393;50.560;12.636;2023-04-03T11:38:06;6.30;94.10
4759;DHT22;2393;50.560;12.636;2023-04-03T11:40:35;6.10;94.30
4759;DHT22;2393;50.560;12.636;2023-04-03T11:43:06;5.80;95.10
4759;DHT22;2393;50.560;12.636;2023-04-03T11:45:37;5.70;96.10
4759;DHT22;2393;50.560;12.636;2023-04-03T11:48:42;5.70;95.90
4759;DHT22;2393;50.560;12.636;2023-04-03T11:51:42;5.90;97.20
4759;DHT22;2393;50.560;12.636;2023-04-03T11:54:44;6.30;98.50
4759;DHT22;2393;50.560;12.636;2023-04-03T11:57:45;7.00;97.80
4759;DHT22;2393;50.560;12.636;2023-04-03T12:04:04;7.70;96.30
4759;DHT22;2393;50.560;12.636;2023-04-03T12:10:17;7.90;94.40
4759;DHT22;2393;50.560;12.636;2023-04-03T12:12:59;7.10;94.90
4759;DHT22;2393;50.560;12.636;2023-04-03T12:15:50;6.90;95.30
4759;DHT22;2393;50.560;12.636;2023-04-03T12:18:39;7.10;97.60
4759;DHT22;2393;50.560;12.636;2023-04-03T12:21:09;7.70;97.00
4759;DHT22;2393;50.560;12.636;2023-04-03T12:24:15;8.10;94.50
4759;DHT22;2393;50.560;12.636;2023-04-03T12:27:02;7.90;94.40
4759;DHT22;2393;50.560;12.636;2023-04-03T12:29:34;7.90;96.40
4759;DHT22;2393;50.560;12.636;2023-04-03T12:32:15;7.70;96.20
4759;DHT22;2393;50.560;12.636;2023-04-03T12:35:05;7.60;96.50
4759;DHT22;2393;50.560;12.636;2023-04-03T12:37:54;7.60;96.70
4759;DHT22;2393;50.560;12.636;2023-04-03T12:40:30;7.60;96.90
4759;DHT22;2393;50.560;12.636;2023-04-03T12:43:14;7.50;96.30
4759;DHT22;2393;50.560;12.636;2023-04-03T12:45:47;7.40;96.20
4759;DHT22;2393;50.560;12.636;2023-04-03T12:48:25;7.40;96.70
4759;DHT22;2393;50.560;12.636;2023-04-03T12:50:54;7.30;97.40
4759;DHT22;2393;50.560;12.636;2023-04-03T12:53:26;7.20;96.30
4759;DHT22;2393;50.560;12.636;2023-04-03T12:55:55;7.10;97.20
4759;DHT22;2393;50.560;12.636;2023-04-03T12:58:24;7.00;96.80
4759;DHT22;2393;50.560;12.636;2023-04-03T13:01:01;7.00;96.80
4759;DHT22;2393;50.560;12.636;2023-04-03T13:03:30;6.90;96.40
4759;DHT22;2393;50.560;12.636;2023-04-03T13:06:02;7.00;96.40
4759;DHT22;2393;50.560;12.636;2023-04-03T13:08:32;7.00;96.60
4759;DHT22;2393;50.560;12.636;2023-04-03T13:11:03;7.00;96.40
4759;DHT22;2393;50.560;12.636;2023-04-03T13:13:33;7.00;96.80
4759;DHT22;2393;50.560;12.636;2023-04-03T13:16:08;6.80;96.90
4759;DHT22;2393;50.560;12.636;2023-04-03T13:18:37;6.80;96.10
4759;DHT22;2393;50.560;12.636;2023-04-03T13:21:07;6.80;96.90
4759;DHT22;2393;50.560;12.636;2023-04-03T13:23:43;6.50;96.70
4759;DHT22;2393;50.560;12.636;2023-04-03T13:26:15;6.40;95.20
4759;DHT22;2393;50.560;12.636;2023-04-03T13:28:45;6.30;95.70
4759;DHT22;2393;50.560;12.636;2023-04-03T13:31:19;6.20;95.10
4759;DHT22;2393;50.560;12.636;2023-04-03T13:33:56;5.90;95.20
4759;DHT22;2393;50.560;12.636;2023-04-03T13:36:28;5.40;94.70
4759;DHT22;2393;50.560;12.636;2023-04-03T13:39:06;5.10;95.90
4759;DHT22;2393;50.560;12.636;2023-04-03T13:41:36;4.90;96.10
4759;DHT22;2393;50.560;12.636;2023-04-03T13:44:31;4.70;95.50
4759;DHT22;2393;50.560;12.636;2023-04-03T13:47:00;4.60;96.20
4759;DHT22;2393;50.560;12.636;2023-04-03T13:49:33;4.40;95.80
4759;DHT22;2393;50.560;12.636;2023-04-03T13:52:17;4.40;97.40
4759;DHT22;2393;50.560;12.636;2023-04-03T13:54:52;4.60;97.20
4759;DHT22;2393;50.560;12.636;2023-04-03T13:57:22;4.70;97.50
4759;DHT22;2393;50.560;12.636;2023-04-03T13:59:50;4.80;97.70
4759;DHT22;2393;50.560;12.636;2023-04-03T14:02:21;4.70;97.80
4759;DHT22;2393;50.560;12.636;2023-04-03T14:04:53;4.80;97.70
4759;DHT22;2393;50.560;12.636;2023-04-03T14:07:23;4.90;97.70
4759;DHT22;2393;50.560;12.636;2023-04-03T14:09:53;4.80;96.70
4759;DHT22;2393;50.560;12.636;2023-04-03T14:12:27;4.50;97.00
4759;DHT22;2393;50.560;12.636;2023-04-03T14:14:59;4.40;96.70
4759;DHT22;2393;50.560;12.636;2023-04-03T14:17:28;4.30;96.90
4759;DHT22;2393;50.560;12.636;2023-04-03T14:19:57;4.50;98.10
4759;DHT22;2393;50.560;12.636;2023-04-03T14:22:28;4.70;98.00
4759;DHT22;2393;50.560;12.636;2023-04-03T14:24:57;4.80;97.60
4759;DHT22;2393;50.560;12.636;2023-04-03T14:27:28;4.90;96.60
4759;DHT22;2393;50.560;12.636;2023-04-03T14:29:57;5.00;97.50
4759;DHT22;2393;50.560;12.636;2023-04-03T14:32:26;5.00;96.70
4759;DHT22;2393;50.560;12.636;2023-04-03T14:34:54;4.80;95.90
4759;DHT22;2393;50.560;12.636;2023-04-03T14:37:26;4.60;96.80
4759;DHT22;2393;50.560;12.636;2023-04-03T14:39:58;4.60;96.30
4759;DHT22;2393;50.560;12.636;2023-04-03T14:42:29;4.70;97.30
4759;DHT22;2393;50.560;12.636;2023-04-03T14:44:58;4.60;96.50
4759;DHT22;2393;50.560;12.636;2023-04-03T14:47:28;4.20;94.80
4759;DHT22;2393;50.560;12.636;2023-04-03T14:49:59;3.90;96.00
4759;DHT22;2393;50.560;12.636;2023-04-03T14:52:30;3.90;96.30
4759;DHT22;2393;50.560;12.636;2023-04-03T14:55:01;3.90;97.10
4759;DHT22;2393;50.560;12.636;2023-04-03T14:57:29;4.00;97.40
4759;DHT22;2393;50.560;12.636;2023-04-03T14:59:58;4.10;97.40
4759;DHT22;2393;50.560;12.636;2023-04-03T15:02:29;4.20;97.70
4759;DHT22;2393;50.560;12.636;2023-04-03T15:04:59;4.10;97.50
4759;DHT22;2393;50.560;12.636;2023-04-03T15:07:32;4.00;97.20
4759;DHT22;2393;50.560;12.636;2023-04-03T15:10:14;4.00;98.20
4759;DHT22;2393;50.560;12.636;2023-04-03T15:12:46;3.90;97.90
4759;DHT22;2393;50.560;12.636;2023-04-03T15:15:15;3.90;97.90
4759;DHT22;2393;50.560;12.636;2023-04-03T15:17:44;3.40;97.60
4759;DHT22;2393;50.560;12.636;2023-04-03T15:20:16;3.30;97.10
4759;DHT22;2393;50.560;12.636;2023-04-03T15:22:50;3.30;97.70
4759;DHT22;2393;50.560;12.636;2023-04-03T15:25:19;3.20;97.70
4759;DHT22;2393;50.560;12.636;2023-04-03T15:27:48;3.10;96.90
4759;DHT22;2393;50.560;12.636;2023-04-03T15:30:18;3.20;97.70
4759;DHT22;2393;50.560;12.636;2023-04-03T15:32:46;3.30;99.00
4759;DHT22;2393;50.560;12.636;2023-04-03T15:35:14;3.40;99.30
4759;DHT22;2393;50.560;12.636;2023-04-03T15:37:42;3.50;99.90
4759;DHT22;2393;50.560;12.636;2023-04-03T15:40:11;3.50;99.60
4759;DHT22;2393;50.560;12.636;2023-04-03T15:42:41;3.60;99.90
4759;DHT22;2393;50.560;12.636;2023-04-03T15:45:09;3.60;99.50
4759;DHT22;2393;50.560;12.636;2023-04-03T15:47:38;3.40;98.40
4759;DHT22;2393;50.560;12.636;2023-04-03T15:50:06;3.40;98.90
4759;DHT22;2393;50.560;12.636;2023-04-03T15:52:35;3.30;98.80
4759;DHT22;2393;50.560;12.636;2023-04-03T15:55:03;3.20;98.80
4759;DHT22;2393;50.560;12.636;2023-04-03T15:57:32;3.20;97.90
4759;DHT22;2393;50.560;12.636;2023-04-03T16:00:08;3.30;98.00
4759;DHT22;2393;50.560;12.636;2023-04-03T16:02:36;2.90;98.60
4759;DHT22;2393;50.560;12.636;2023-04-03T16:05:05;2.90;99.80
4759;DHT22;2393;50.560;12.636;2023-04-03T16:07:33;2.90;99.90
4759;DHT22;2393;50.560;12.636;2023-04-03T16:10:02;2.90;99.90
4759;DHT22;2393;50.560;12.636;2023-04-03T16:12:30;2.70;99.90
4759;DHT22;2393;50.560;12.636;2023-04-03T16:15:00;2.50;99.70
4759;DHT22;2393;50.560;12.636;2023-04-03T16:17:31;2.40;99.90
4759;DHT22;2393;50.560;12.636;2023-04-03T16:20:00;2.20;99.90
4759;DHT22;2393;50.560;12.636;2023-04-03T16:22:30;2.00;99.90
4759;DHT22;2393;50.560;12.636;2023-04-03T16:24:58;2.00;99.90
4759;DHT22;2393;50.560;12.636;2023-04-03T16:27:27;2.00;99.90
4759;DHT22;2393;50.560;12.636;2023-04-03T16:29:57;2.00;99.90
4759;DHT22;2393;50.560;12.636;2023-04-03T16:32:27;1.90;99.90
4759;DHT22;2393;50.560;12.636;2023-04-03T16:35:00;2.00;99.90
4759;DHT22;2393;50.560;12.636;2023-04-03T16:37:29;1.90;99.90
4759;DHT22;2393;50.560;12.636;2023-04-03T16:40:02;1.90;99.90
4759;DHT22;2393;50.560;12.636;2023-04-03T16:42:30;1.80;99.90